Time;durP1;ratioP1;P1;durP2;ratioP2;P2;SDS_P1;SDS_P2;PMS_P1;PMS_P2;Temp;Humidity;BMP_temperature;BMP_pressure;BME280_temperature;BME280_humidity;BME280_pressure;Samples;Min_cycle;Max_cycle;Signal;HPM_P1;HPM_P2
2021/11/10 00:02:03;;;;;;;18.80;10.43;;;1.00;99.90;;;;;;5008557;28;20445;-55
2021/11/10 00:04:29;;;;;;;22.70;11.50;;;1.00;99.90;;;;;;5010193;28;20792;-57
2021/11/10 00:06:54;;;;;;;26.53;12.57;;;1.00;99.90;;;;;;5006317;28;20517;-56
2021/11/10 00:09:20;;;;;;;24.03;11.90;;;1.00;99.90;;;;;;5008370;28;20237;-56
2021/11/10 00:11:46;;;;;;;29.57;12.40;;;1.00;99.90;;;;;;5008451;28;20213;-56
2021/11/10 00:14:12;;;;;;;19.90;11.40;;;1.00;99.90;;;;;;5005246;28;20212;-56
2021/11/10 00:16:37;;;;;;;27.53;12.03;;;0.90;99.90;;;;;;5007578;28;20532;-57
2021/11/10 00:19:03;;;;;;;21.60;11.70;;;0.90;99.90;;;;;;5011789;28;20172;-54
2021/11/10 00:21:30;;;;;;;19.10;11.70;;;0.90;99.90;;;;;;5012714;28;20650;-56
2021/11/10 00:23:56;;;;;;;26.77;11.80;;;0.90;99.90;;;;;;5010196;28;20445;-56
2021/11/10 00:26:22;;;;;;;21.90;10.40;;;0.90;99.90;;;;;;5012973;28;21050;-56
2021/11/10 00:28:49;;;;;;;19.13;10.00;;;0.90;99.90;;;;;;5009843;28;20443;-55
2021/11/10 00:31:15;;;;;;;20.67;10.33;;;0.90;99.90;;;;;;5008571;28;20608;-56
2021/11/10 00:33:41;;;;;;;21.60;10.90;;;0.90;99.90;;;;;;5010597;28;20462;-57
2021/11/10 00:36:08;;;;;;;22.30;10.20;;;0.90;99.90;;;;;;5008276;28;20444;-56
2021/11/10 00:38:34;;;;;;;19.07;11.70;;;0.90;99.90;;;;;;5010654;28;20178;-56
2021/11/10 00:41:00;;;;;;;21.60;11.37;;;0.90;99.90;;;;;;5009460;28;20457;-54
2021/11/10 00:43:26;;;;;;;16.03;9.57;;;0.80;99.90;;;;;;5011062;28;20426;-55
2021/11/10 00:45:51;;;;;;;22.77;11.13;;;0.80;99.90;;;;;;5007461;28;20294;-54
2021/11/10 00:48:17;;;;;;;20.03;10.83;;;0.90;99.90;;;;;;5008921;28;20774;-56
2021/11/10 00:50:43;;;;;;;17.90;10.53;;;0.80;99.90;;;;;;5007022;28;20210;-57
2021/11/10 00:53:09;;;;;;;16.60;10.17;;;0.90;99.90;;;;;;5006156;28;20673;-57
2021/11/10 00:55:36;;;;;;;17.50;10.07;;;0.80;99.90;;;;;;5008989;28;20447;-56
2021/11/10 00:58:03;;;;;;;19.17;10.03;;;0.80;99.90;;;;;;5007399;28;20603;-59
2021/11/10 01:00:30;;;;;;;23.87;10.70;;;0.70;99.90;;;;;;5004542;28;20467;-59
2021/11/10 01:02:56;;;;;;;21.20;10.60;;;0.70;99.90;;;;;;5008160;28;20418;-56
2021/11/10 01:05:21;;;;;;;19.53;10.50;;;0.70;99.90;;;;;;5003245;28;20455;-62
2021/11/10 01:07:47;;;;;;;19.80;10.20;;;0.70;99.90;;;;;;5004469;28;20807;-60
2021/11/10 01:10:13;;;;;;;17.80;9.90;;;0.70;99.90;;;;;;5008300;28;20292;-53
2021/11/10 01:12:39;;;;;;;21.93;11.57;;;0.60;99.90;;;;;;5007861;28;20218;-56
2021/11/10 01:15:08;;;;;;;18.87;11.90;;;0.60;99.90;;;;;;5007053;28;20435;-56
2021/11/10 01:17:34;;;;;;;19.73;11.57;;;0.60;99.90;;;;;;5005546;28;20441;-59
2021/11/10 01:19:59;;;;;;;26.93;12.43;;;0.60;99.90;;;;;;5006793;28;20823;-56
2021/11/10 01:22:25;;;;;;;22.20;11.57;;;0.50;99.90;;;;;;5007714;28;20447;-55
2021/11/10 01:24:51;;;;;;;26.27;11.73;;;0.50;99.90;;;;;;5002594;28;20271;-56
2021/11/10 01:27:17;;;;;;;24.70;11.80;;;0.60;99.90;;;;;;5006787;28;20469;-56
2021/11/10 01:29:44;;;;;;;22.40;11.30;;;0.60;99.90;;;;;;5009149;28;20166;-59
2021/11/10 01:32:10;;;;;;;19.00;10.43;;;0.50;99.90;;;;;;5012191;28;20434;-56
2021/11/10 01:34:36;;;;;;;18.60;10.10;;;0.50;99.90;;;;;;5024484;28;20445;-57
2021/11/10 01:37:01;;;;;;;20.00;10.70;;;0.50;99.90;;;;;;5027673;28;20237;-58
2021/11/10 01:39:27;;;;;;;20.40;11.53;;;0.50;99.90;;;;;;5015039;28;20269;-56
2021/11/10 01:42:01;;;;;;;22.60;11.60;;;0.50;99.90;;;;;;5006078;28;20251;-56
2021/11/10 01:44:27;;;;;;;20.07;11.67;;;0.50;99.90;;;;;;5009343;28;20186;-56
2021/11/10 01:46:55;;;;;;;23.40;11.00;;;0.50;99.90;;;;;;5011737;28;20421;-58
2021/11/10 01:49:21;;;;;;;24.77;12.30;;;0.50;99.90;;;;;;5012577;28;20513;-57
2021/11/10 01:51:49;;;;;;;24.97;11.87;;;0.50;99.90;;;;;;5023586;28;20464;-56
2021/11/10 01:54:26;;;;;;;22.33;11.77;;;0.50;99.90;;;;;;5028987;28;20199;-55
2021/11/10 01:56:52;;;;;;;19.93;11.33;;;0.50;99.90;;;;;;5029085;28;20453;-59
2021/11/10 01:59:33;;;;;;;19.23;10.47;;;0.50;99.90;;;;;;5027409;28;20493;-56
2021/11/10 02:02:01;;;;;;;25.20;12.23;;;0.40;99.90;;;;;;5017554;28;20518;-55
2021/11/10 02:04:29;;;;;;;22.17;12.53;;;0.50;99.90;;;;;;5007460;28;20932;-54
2021/11/10 02:06:55;;;;;;;21.97;11.53;;;0.40;99.90;;;;;;5006939;28;20438;-55
2021/11/10 02:09:23;;;;;;;20.40;11.00;;;0.50;99.90;;;;;;5005714;28;20525;-54
2021/11/10 02:11:50;;;;;;;28.77;12.60;;;0.40;99.90;;;;;;5004254;28;20457;-54
2021/11/10 02:14:20;;;;;;;23.13;11.93;;;0.40;99.90;;;;;;5004735;28;20473;-55
2021/11/10 02:16:46;;;;;;;19.00;10.87;;;0.50;99.90;;;;;;5004292;28;20434;-54
2021/11/10 02:19:15;;;;;;;22.53;11.90;;;0.50;99.90;;;;;;5007665;28;20420;-52
2021/11/10 02:21:51;;;;;;;22.60;10.80;;;0.50;99.90;;;;;;5007419;28;20541;-55
2021/11/10 02:24:17;;;;;;;19.60;12.00;;;0.50;99.90;;;;;;5021266;28;20432;-56
2021/11/10 02:26:45;;;;;;;24.83;11.87;;;0.50;99.90;;;;;;5006745;28;20805;-55
2021/11/10 02:29:16;;;;;;;32.37;12.27;;;0.50;99.90;;;;;;5003769;28;20528;-56
2021/11/10 02:31:43;;;;;;;20.33;11.07;;;0.50;99.90;;;;;;5005555;28;20454;-56
2021/11/10 02:34:10;;;;;;;21.93;11.77;;;0.50;99.90;;;;;;5004866;28;20521;-55
2021/11/10 02:36:36;;;;;;;23.70;11.33;;;0.50;99.90;;;;;;5009729;28;20439;-55
2021/11/10 02:39:06;;;;;;;21.20;11.77;;;0.50;99.90;;;;;;5011078;28;20680;-56
2021/11/10 02:41:33;;;;;;;24.30;11.87;;;0.50;99.90;;;;;;5007183;28;20469;-56
2021/11/10 02:43:59;;;;;;;21.37;11.07;;;0.50;99.90;;;;;;5012281;28;20942;-57
2021/11/10 02:46:25;;;;;;;21.47;11.40;;;0.50;99.90;;;;;;5009438;28;20469;-55
2021/11/10 02:48:52;;;;;;;23.07;11.87;;;0.50;99.90;;;;;;5007534;28;20191;-54
2021/11/10 02:51:17;;;;;;;22.83;11.70;;;0.50;99.90;;;;;;5006523;28;20452;-57
2021/11/10 02:53:43;;;;;;;24.23;12.00;;;0.50;99.90;;;;;;5008546;28;20519;-56
2021/11/10 02:56:09;;;;;;;22.23;11.57;;;0.50;99.90;;;;;;5009193;28;20190;-55
2021/11/10 02:58:37;;;;;;;19.37;11.47;;;0.50;99.90;;;;;;5007173;28;20434;-56
2021/11/10 03:01:06;;;;;;;27.90;11.20;;;0.50;99.90;;;;;;5010227;28;20453;-56
2021/11/10 03:03:32;;;;;;;17.93;10.77;;;0.40;99.90;;;;;;5010531;28;20456;-56
2021/11/10 03:05:58;;;;;;;29.60;11.47;;;0.40;99.90;;;;;;5006996;28;20935;-56
2021/11/10 03:08:24;;;;;;;23.37;12.17;;;0.40;99.90;;;;;;5008782;28;20449;-57
2021/11/10 03:10:51;;;;;;;16.80;10.07;;;0.40;99.90;;;;;;5009758;28;20461;-54
2021/11/10 03:13:17;;;;;;;21.13;11.33;;;0.30;99.90;;;;;;5011665;28;20460;-55
2021/11/10 03:15:45;;;;;;;21.73;11.83;;;0.40;99.90;;;;;;5009645;28;20441;-56
2021/11/10 03:18:12;;;;;;;24.53;12.37;;;0.30;99.90;;;;;;5008073;28;20931;-57
2021/11/10 03:20:37;;;;;;;18.57;10.43;;;0.40;99.90;;;;;;5010401;28;20460;-64
2021/11/10 03:23:04;;;;;;;21.20;12.17;;;0.40;99.90;;;;;;5008493;28;20503;-56
2021/11/10 03:25:30;;;;;;;21.57;11.90;;;0.40;99.90;;;;;;5003779;28;20201;-55
2021/11/10 03:27:57;;;;;;;29.20;12.43;;;0.40;99.90;;;;;;5008962;28;20514;-55
2021/11/10 03:30:22;;;;;;;24.30;11.70;;;0.40;99.90;;;;;;5006446;28;20548;-57
2021/11/10 03:32:51;;;;;;;22.80;11.00;;;0.40;99.90;;;;;;5008445;28;20444;-56
2021/11/10 03:35:18;;;;;;;22.40;10.60;;;0.50;99.90;;;;;;5020157;28;20182;-58
2021/11/10 03:37:44;;;;;;;23.63;11.63;;;0.50;99.90;;;;;;5030703;28;20437;-59
2021/11/10 03:40:11;;;;;;;23.93;11.17;;;0.50;99.90;;;;;;5022834;28;20460;-59
2021/11/10 03:42:38;;;;;;;18.47;10.13;;;0.50;99.90;;;;;;5004007;28;20437;-56
2021/11/10 03:45:05;;;;;;;22.83;12.23;;;0.50;99.90;;;;;;5006257;28;20442;-57
2021/11/10 03:47:30;;;;;;;21.33;11.37;;;0.50;99.90;;;;;;5008755;28;20413;-57
2021/11/10 03:49:56;;;;;;;25.33;11.40;;;0.50;99.90;;;;;;5005159;28;20514;-56
2021/11/10 03:52:22;;;;;;;23.17;10.87;;;0.50;99.90;;;;;;5008174;28;20206;-56
2021/11/10 03:54:48;;;;;;;23.27;12.13;;;0.50;99.90;;;;;;5007226;28;20349;-56
2021/11/10 03:57:14;;;;;;;25.20;11.83;;;0.60;99.90;;;;;;5002952;28;20518;-56
2021/11/10 03:59:40;;;;;;;19.70;10.63;;;0.60;99.90;;;;;;5004444;28;20441;-57
2021/11/10 04:02:08;;;;;;;26.13;12.20;;;0.60;99.90;;;;;;4997990;28;20482;-57
2021/11/10 04:04:33;;;;;;;25.80;11.20;;;0.60;99.90;;;;;;5009049;28;20723;-55
2021/11/10 04:07:00;;;;;;;20.40;12.00;;;0.60;99.90;;;;;;5002887;28;20438;-57
2021/11/10 04:09:26;;;;;;;29.37;12.00;;;0.60;99.90;;;;;;5001183;28;20187;-56
2021/11/10 04:11:51;;;;;;;19.03;11.97;;;0.60;99.90;;;;;;4992236;28;20944;-56
2021/11/10 04:14:17;;;;;;;19.73;11.20;;;0.60;99.90;;;;;;5005774;28;20493;-57
2021/11/10 04:16:44;;;;;;;29.10;12.07;;;0.60;99.90;;;;;;5008212;28;20178;-57
2021/11/10 04:19:09;;;;;;;23.60;12.70;;;0.60;99.90;;;;;;5012002;28;20272;-56
2021/11/10 04:21:35;;;;;;;24.37;12.10;;;0.50;99.90;;;;;;5037347;22;20918;-61
2021/11/10 04:24:01;;;;;;;21.90;12.10;;;0.50;99.90;;;;;;5020273;28;20457;-59
2021/11/10 04:26:33;;;;;;;22.40;11.50;;;0.50;99.90;;;;;;5022033;28;20911;-59
2021/11/10 04:28:59;;;;;;;23.20;11.67;;;0.50;99.90;;;;;;5029523;28;20229;-58
2021/11/10 04:31:25;;;;;;;20.70;11.20;;;0.50;99.90;;;;;;5027637;28;20456;-59
2021/11/10 04:33:52;;;;;;;21.40;10.57;;;0.50;99.90;;;;;;5044085;28;20202;-57
2021/11/10 04:36:18;;;;;;;20.00;11.37;;;0.40;99.90;;;;;;5030572;28;20404;-60
2021/11/10 04:38:45;;;;;;;21.63;11.37;;;0.40;99.90;;;;;;5018409;28;20471;-58
2021/11/10 04:41:11;;;;;;;24.60;12.07;;;0.40;99.90;;;;;;5024747;28;20444;-58
2021/11/10 04:43:37;;;;;;;24.87;11.63;;;0.40;99.90;;;;;;5022473;28;20922;-56
2021/11/10 04:48:36;;;;;;;19.53;12.80;;;0.40;99.90;;;;;;5021580;28;20437;-58
2021/11/10 04:51:02;;;;;;;23.03;10.97;;;0.40;99.90;;;;;;5023284;28;20456;-58
2021/11/10 04:53:27;;;;;;;21.53;11.53;;;0.40;99.90;;;;;;5016320;28;20457;-58
2021/11/10 04:55:53;;;;;;;29.20;12.00;;;0.40;99.90;;;;;;5025140;28;20445;-58
2021/11/10 04:58:19;;;;;;;27.00;12.20;;;0.40;99.90;;;;;;5022004;28;20300;-57
2021/11/10 05:00:46;;;;;;;25.20;11.80;;;0.40;99.90;;;;;;5022519;28;20834;-59
2021/11/10 05:03:12;;;;;;;24.00;12.63;;;0.40;99.90;;;;;;5019582;28;20177;-59
2021/11/10 05:05:37;;;;;;;25.67;12.27;;;0.40;99.90;;;;;;5024748;28;20472;-58
2021/11/10 05:08:03;;;;;;;21.43;12.57;;;0.30;99.90;;;;;;5012073;28;20185;-61
2021/11/10 05:10:29;;;;;;;24.13;12.40;;;0.30;99.90;;;;;;5020851;28;20217;-61
2021/11/10 05:12:55;;;;;;;24.33;13.57;;;0.30;99.90;;;;;;5025613;28;20460;-60
2021/11/10 05:15:21;;;;;;;23.93;12.53;;;0.30;99.90;;;;;;5032829;28;20192;-60
2021/11/10 05:17:46;;;;;;;25.07;12.83;;;0.20;99.90;;;;;;5015622;28;20935;-60
2021/11/10 05:20:12;;;;;;;30.70;12.97;;;0.30;99.90;;;;;;5023962;28;20680;-60
2021/11/10 05:22:39;;;;;;;24.23;12.87;;;0.20;99.90;;;;;;5012610;28;20198;-60
2021/11/10 05:25:05;;;;;;;26.30;13.23;;;0.30;99.90;;;;;;5024609;28;20182;-59
2021/11/10 05:27:31;;;;;;;32.47;13.70;;;0.30;99.90;;;;;;5017305;28;20469;-58
2021/11/10 05:29:57;;;;;;;22.57;12.73;;;0.30;99.90;;;;;;5028240;28;20490;-61
2021/11/10 05:32:22;;;;;;;25.13;12.37;;;0.30;99.90;;;;;;5023176;28;20291;-62
2021/11/10 05:34:50;;;;;;;26.20;12.47;;;0.40;99.90;;;;;;5020430;28;20201;-61
2021/11/10 05:37:16;;;;;;;31.73;14.83;;;0.30;99.90;;;;;;5002887;28;22074;-62
2021/11/10 05:39:41;;;;;;;30.80;12.73;;;0.30;99.90;;;;;;5003854;28;20480;-62
2021/11/10 05:42:08;;;;;;;33.20;12.90;;;0.30;99.90;;;;;;5009977;28;20491;-63
2021/11/10 05:44:34;;;;;;;23.00;13.20;;;0.30;99.90;;;;;;5009065;28;20561;-62
2021/11/10 05:46:59;;;;;;;25.57;13.40;;;0.40;99.90;;;;;;5008493;28;20447;-62
2021/11/10 05:49:25;;;;;;;29.30;12.60;;;0.40;99.90;;;;;;5013848;28;20533;-63
2021/11/10 05:51:51;;;;;;;29.97;11.57;;;0.40;99.90;;;;;;5006316;28;20316;-59
2021/11/10 05:54:17;;;;;;;28.03;13.60;;;0.40;99.90;;;;;;5010988;28;20237;-65
2021/11/10 05:56:43;;;;;;;27.23;12.10;;;0.50;99.90;;;;;;5017227;28;20180;-62
2021/11/10 05:59:09;;;;;;;32.97;14.10;;;0.40;99.90;;;;;;5010896;28;20966;-61
2021/11/10 06:01:36;;;;;;;27.43;12.90;;;0.50;99.90;;;;;;5014989;28;21084;-61
2021/11/10 06:04:02;;;;;;;28.83;12.57;;;0.50;99.90;;;;;;5010558;28;20954;-62
2021/11/10 06:06:28;;;;;;;35.10;13.60;;;0.50;99.90;;;;;;5016652;28;20439;-62
2021/11/10 06:08:54;;;;;;;23.73;13.10;;;0.40;99.90;;;;;;5013616;28;20916;-61
2021/11/10 06:11:20;;;;;;;31.00;12.43;;;0.50;99.90;;;;;;5024186;28;20452;-60
2021/11/10 06:13:46;;;;;;;23.87;11.37;;;0.40;99.90;;;;;;5021217;28;20527;-61
2021/11/10 06:16:12;;;;;;;22.43;12.30;;;0.40;99.90;;;;;;5028330;28;20632;-62
2021/11/10 06:18:37;;;;;;;24.43;12.40;;;0.40;99.90;;;;;;5024022;28;20657;-61
2021/11/10 06:21:04;;;;;;;23.43;11.60;;;0.40;99.90;;;;;;5014391;28;20292;-60
2021/11/10 06:23:30;;;;;;;23.53;11.93;;;0.50;99.90;;;;;;5030241;28;20185;-61
2021/11/10 06:25:56;;;;;;;26.10;11.50;;;0.50;99.90;;;;;;5020830;28;20438;-60
2021/11/10 06:28:22;;;;;;;27.47;13.80;;;0.50;99.90;;;;;;5026267;28;20186;-61
2021/11/10 06:30:48;;;;;;;33.00;16.97;;;0.50;99.90;;;;;;5015375;28;20522;-62
2021/11/10 06:33:14;;;;;;;33.70;15.40;;;0.40;99.90;;;;;;5030346;28;20282;-61
2021/11/10 06:35:39;;;;;;;27.30;13.73;;;0.50;99.90;;;;;;5027175;28;20201;-61
2021/11/10 06:38:05;;;;;;;34.27;14.17;;;0.50;99.90;;;;;;5031583;28;20181;-61
2021/11/10 06:40:31;;;;;;;23.30;13.27;;;0.50;99.90;;;;;;5027324;28;20224;-59
2021/11/10 06:42:56;;;;;;;27.13;13.30;;;0.60;99.90;;;;;;5028846;28;20169;-62
2021/11/10 06:45:22;;;;;;;26.67;13.10;;;0.60;99.90;;;;;;5031790;28;20915;-61
2021/11/10 06:47:49;;;;;;;24.87;12.40;;;0.60;99.90;;;;;;5024465;28;20186;-60
2021/11/10 06:50:15;;;;;;;29.80;13.70;;;0.60;99.90;;;;;;5012261;28;20650;-61
2021/11/10 06:52:41;;;;;;;26.57;12.53;;;0.70;99.90;;;;;;5025991;28;20437;-63
2021/11/10 06:55:08;;;;;;;28.60;12.90;;;0.70;99.90;;;;;;5032985;28;20770;-61
2021/11/10 06:57:34;;;;;;;23.67;12.80;;;0.70;99.90;;;;;;5033448;28;20170;-61
2021/11/10 06:59:59;;;;;;;24.63;12.87;;;0.70;99.90;;;;;;5026102;28;20442;-61
2021/11/10 07:02:26;;;;;;;25.50;13.03;;;0.70;99.90;;;;;;5032957;28;20504;-61
2021/11/10 07:04:52;;;;;;;26.33;13.10;;;0.70;99.90;;;;;;5022028;28;20181;-61
2021/11/10 07:07:19;;;;;;;26.83;13.20;;;0.70;99.90;;;;;;5020893;28;20430;-62
2021/11/10 07:09:45;;;;;;;31.40;13.43;;;0.70;99.90;;;;;;5039617;28;20180;-65
2021/11/10 07:12:10;;;;;;;25.63;12.37;;;0.70;99.90;;;;;;5016902;28;20828;-61
2021/11/10 07:14:36;;;;;;;29.73;14.50;;;0.70;99.90;;;;;;5021539;28;20224;-60
2021/11/10 07:17:02;;;;;;;27.73;13.97;;;0.70;99.90;;;;;;5021773;28;20176;-61
2021/11/10 07:19:27;;;;;;;27.30;14.77;;;0.70;99.90;;;;;;5021060;28;20549;-61
2021/11/10 07:21:53;;;;;;;36.60;15.17;;;0.70;99.90;;;;;;5012276;28;20206;-61
2021/11/10 07:24:19;;;;;;;31.67;14.63;;;0.70;99.90;;;;;;5010300;28;20735;-60
2021/11/10 07:26:44;;;;;;;31.27;15.03;;;0.70;99.90;;;;;;5021452;28;20182;-60
2021/11/10 07:29:10;;;;;;;31.00;16.10;;;0.80;99.90;;;;;;5020071;28;20180;-61
2021/11/10 07:31:36;;;;;;;28.60;13.40;;;0.80;99.90;;;;;;5023370;28;20676;-59
2021/11/10 07:34:02;;;;;;;48.67;14.33;;;0.80;99.90;;;;;;5006733;28;20231;-61
2021/11/10 07:36:28;;;;;;;27.50;14.87;;;0.90;99.90;;;;;;5021244;28;20183;-61
2021/11/10 07:38:55;;;;;;;39.50;14.87;;;1.00;99.90;;;;;;5017023;28;20428;-61
2021/11/10 07:41:23;;;;;;;34.13;13.87;;;1.00;99.90;;;;;;5025052;28;20559;-61
2021/11/10 07:43:52;;;;;;;29.10;13.47;;;1.00;99.90;;;;;;5015532;28;20438;-64
2021/11/10 07:46:19;;;;;;;34.60;14.10;;;1.10;99.90;;;;;;5014637;28;20497;-61
2021/11/10 07:48:49;;;;;;;25.53;12.33;;;1.10;99.90;;;;;;5025389;28;20467;-60
2021/11/10 07:51:17;;;;;;;28.23;14.13;;;1.20;99.90;;;;;;5029313;28;20478;-60
2021/11/10 07:53:43;;;;;;;25.13;13.80;;;1.20;99.90;;;;;;5024924;28;20459;-60
2021/11/10 07:56:09;;;;;;;31.30;15.27;;;1.30;99.90;;;;;;5025805;28;20424;-60
2021/11/10 07:58:36;;;;;;;26.83;13.93;;;1.30;99.90;;;;;;5022902;28;20430;-60
2021/11/10 08:01:01;;;;;;;26.80;13.77;;;1.40;99.90;;;;;;5026430;28;20205;-60
2021/11/10 08:03:27;;;;;;;30.37;15.07;;;1.50;99.90;;;;;;5023478;28;20528;-60
2021/11/10 08:05:56;;;;;;;30.90;15.10;;;1.50;99.90;;;;;;5022768;28;20429;-60
2021/11/10 08:08:22;;;;;;;24.23;13.80;;;1.60;99.90;;;;;;5024474;28;20188;-60
2021/11/10 08:10:48;;;;;;;28.87;13.80;;;1.50;99.90;;;;;;5024964;28;20634;-60
2021/11/10 08:13:13;;;;;;;37.50;15.37;;;1.60;99.90;;;;;;5020406;28;20205;-62
2021/11/10 08:15:39;;;;;;;30.17;14.00;;;1.50;99.90;;;;;;5023902;28;20183;-61
2021/11/10 08:18:05;;;;;;;26.70;14.13;;;1.60;99.90;;;;;;5028633;28;20182;-61
2021/11/10 08:20:31;;;;;;;27.33;14.33;;;1.60;99.90;;;;;;5028332;28;20774;-61
2021/11/10 08:22:57;;;;;;;24.20;13.27;;;1.60;99.90;;;;;;5029647;28;20162;-61
2021/11/10 08:25:22;;;;;;;26.80;14.33;;;1.60;99.90;;;;;;5023454;28;20464;-61
2021/11/10 08:27:48;;;;;;;27.90;14.87;;;1.70;99.90;;;;;;5025946;28;20708;-61
2021/11/10 08:30:17;;;;;;;26.43;13.83;;;1.70;99.90;;;;;;5029588;28;20183;-60
2021/11/10 08:32:44;;;;;;;27.60;14.00;;;1.80;99.90;;;;;;5027461;28;20784;-61
2021/11/10 08:35:10;;;;;;;28.43;16.33;;;1.80;99.90;;;;;;5024419;28;20963;-62
2021/11/10 08:37:36;;;;;;;27.10;14.87;;;1.90;99.90;;;;;;5021428;28;20945;-59
2021/11/10 08:40:03;;;;;;;29.40;14.60;;;1.90;99.90;;;;;;5021345;28;20503;-61
2021/11/10 08:42:33;;;;;;;28.20;14.73;;;2.00;99.90;;;;;;5021822;28;20523;-59
2021/11/10 08:45:26;;;;;;;30.33;14.63;;;2.00;99.90;;;;;;5022050;28;20441;-60
2021/11/10 08:47:55;;;;;;;29.57;14.57;;;2.10;99.90;;;;;;5019074;28;20436;-61
2021/11/10 08:50:23;;;;;;;26.13;13.93;;;2.20;99.90;;;;;;5017775;28;21178;-61
2021/11/10 08:52:49;;;;;;;31.03;14.33;;;2.30;99.90;;;;;;5023882;28;20526;-60
2021/11/10 08:55:16;;;;;;;31.07;14.37;;;2.40;99.90;;;;;;5026182;28;20436;-61
2021/11/10 08:57:43;;;;;;;25.40;13.57;;;2.40;99.90;;;;;;5018714;28;20437;-61
2021/11/10 09:00:16;;;;;;;26.53;14.47;;;2.60;99.90;;;;;;5023215;28;20422;-60
2021/11/10 09:02:42;;;;;;;32.83;13.70;;;2.70;99.90;;;;;;5020760;28;20431;-59
2021/11/10 09:05:10;;;;;;;28.00;13.07;;;2.90;99.90;;;;;;5020144;28;20714;-62
2021/11/10 09:07:35;;;;;;;31.43;13.57;;;3.00;99.90;;;;;;5021019;28;20439;-61
2021/11/10 09:10:05;;;;;;;25.43;12.60;;;3.20;99.90;;;;;;5020028;28;20449;-61
2021/11/10 09:12:31;;;;;;;26.03;11.60;;;3.40;99.90;;;;;;5016025;28;20201;-61
2021/11/10 09:14:58;;;;;;;17.93;10.43;;;3.60;99.90;;;;;;5015663;28;20464;-61
2021/11/10 09:17:24;;;;;;;23.70;11.60;;;3.70;99.90;;;;;;5018021;28;20402;-61
2021/11/10 09:19:50;;;;;;;25.47;13.27;;;3.80;99.90;;;;;;5017665;28;20427;-61
2021/11/10 09:22:16;;;;;;;24.17;12.87;;;3.90;99.90;;;;;;5021048;28;20458;-61
2021/11/10 09:24:41;;;;;;;23.20;12.10;;;4.00;99.90;;;;;;5016448;28;20435;-61
2021/11/10 09:27:07;;;;;;;24.53;11.90;;;4.10;99.90;;;;;;5018323;28;20267;-59
2021/11/10 09:29:33;;;;;;;24.73;13.20;;;4.30;99.90;;;;;;5020333;28;20183;-61
2021/11/10 09:31:59;;;;;;;25.70;14.40;;;4.40;99.90;;;;;;5016868;28;20518;-62
2021/11/10 09:34:26;;;;;;;20.80;12.03;;;4.50;99.90;;;;;;5020579;28;20458;-62
2021/11/10 09:36:52;;;;;;;25.73;12.60;;;4.50;99.90;;;;;;5019832;28;20172;-61
2021/11/10 09:39:21;;;;;;;25.00;13.37;;;4.60;99.90;;;;;;5018492;28;20454;-61
2021/11/10 09:41:49;;;;;;;21.33;13.00;;;4.60;99.90;;;;;;5013357;28;20502;-62
2021/11/10 09:44:15;;;;;;;26.73;13.10;;;4.60;99.90;;;;;;5020577;28;20441;-60
2021/11/10 09:46:42;;;;;;;26.57;12.73;;;4.70;99.90;;;;;;5028674;28;20421;-61
2021/11/10 09:49:10;;;;;;;20.40;12.10;;;4.90;99.90;;;;;;5030693;28;20433;-62
2021/11/10 09:51:37;;;;;;;21.20;12.37;;;4.90;99.90;;;;;;5028022;28;20835;-61
2021/11/10 09:54:05;;;;;;;29.80;13.67;;;5.00;99.90;;;;;;5029370;28;20456;-62
2021/11/10 09:56:34;;;;;;;23.57;13.10;;;5.10;99.90;;;;;;5038206;28;20427;-63
2021/11/10 09:59:01;;;;;;;28.67;13.67;;;5.30;99.90;;;;;;5037625;28;20430;-62
2021/11/10 10:01:27;;;;;;;26.47;13.10;;;5.40;99.90;;;;;;5031364;28;20899;-61
2021/11/10 10:03:55;;;;;;;33.17;13.27;;;5.50;99.90;;;;;;5025107;28;20438;-61
2021/11/10 10:06:24;;;;;;;24.80;12.20;;;5.60;99.90;;;;;;5022033;28;20426;-61
2021/11/10 10:08:49;;;;;;;26.60;14.60;;;5.70;99.90;;;;;;5021924;28;20431;-60
2021/11/10 10:11:15;;;;;;;29.77;13.70;;;5.70;99.90;;;;;;5025843;28;20512;-61
2021/11/10 10:13:41;;;;;;;30.17;13.27;;;5.70;99.90;;;;;;5017266;28;20192;-61
2021/11/10 10:16:08;;;;;;;24.03;13.63;;;5.80;99.90;;;;;;5026554;28;20442;-61
2021/11/10 10:18:35;;;;;;;29.07;14.00;;;5.80;99.90;;;;;;5026385;28;20425;-61
2021/11/10 10:21:08;;;;;;;35.43;15.57;;;5.90;99.90;;;;;;5044593;22;20492;-55
2021/11/10 10:23:40;;;;;;;34.70;15.00;;;6.00;99.90;;;;;;5002525;28;20440;-56
2021/11/10 10:26:14;;;;;;;44.30;15.37;;;6.10;99.90;;;;;;5010821;28;20423;-57
2021/11/10 10:28:43;;;;;;;48.10;16.27;;;6.20;99.90;;;;;;5000067;28;20434;-56
2021/11/10 10:31:11;;;;;;;37.53;15.03;;;6.30;99.90;;;;;;4997176;28;20511;-54
2021/11/10 10:33:41;;;;;;;36.00;16.30;;;6.30;99.90;;;;;;4989030;28;21068;-54
2021/11/10 10:36:16;;;;;;;38.83;15.80;;;6.40;98.10;;;;;;4982694;28;20811;-54
2021/11/10 10:38:47;;;;;;;34.70;14.93;;;6.40;98.00;;;;;;4983995;28;20519;-56
2021/11/10 10:41:14;;;;;;;31.37;15.27;;;6.50;97.50;;;;;;4987617;28;20450;-57
2021/11/10 10:43:44;;;;;;;31.03;15.67;;;6.60;98.10;;;;;;4991455;28;20456;-57
2021/11/10 10:46:10;;;;;;;32.30;14.33;;;6.70;97.70;;;;;;4994109;28;20432;-56
2021/11/10 10:48:37;;;;;;;31.23;15.27;;;6.90;97.20;;;;;;4992548;28;20590;-59
2021/11/10 10:51:09;;;;;;;38.93;15.97;;;7.10;97.40;;;;;;4990256;28;20790;-59
2021/11/10 10:53:38;;;;;;;28.30;13.77;;;7.30;97.40;;;;;;4985954;28;20467;-58
2021/11/10 10:56:19;;;;;;;32.83;12.90;;;7.50;96.50;;;;;;4993862;28;20432;-59
2021/11/10 10:58:46;;;;;;;32.70;15.90;;;7.80;95.90;;;;;;4984656;28;20707;-58
2021/11/10 11:01:31;;;;;;;26.53;13.40;;;8.00;94.50;;;;;;4986593;28;20455;-59
2021/11/10 11:04:15;;;;;;;23.60;12.80;;;8.20;92.30;;;;;;4981286;28;20789;-59
2021/11/10 11:06:44;;;;;;;30.17;13.10;;;8.20;90.40;;;;;;4988405;28;20450;-58
2021/11/10 11:09:14;;;;;;;24.10;12.73;;;8.20;89.50;;;;;;4985306;28;20458;-59
2021/11/10 11:11:55;;;;;;;24.27;12.67;;;8.30;89.60;;;;;;4984327;28;20790;-59
2021/11/10 11:14:48;;;;;;;18.80;11.50;;;8.30;87.60;;;;;;4984238;28;21110;-60
2021/11/10 11:17:23;;;;;;;25.60;12.33;;;8.40;85.50;;;;;;4982862;28;20528;-57
2021/11/10 11:19:51;;;;;;;26.13;11.30;;;8.50;85.90;;;;;;4979351;28;20436;-59
2021/11/10 11:22:17;;;;;;;19.77;10.90;;;8.70;86.10;;;;;;4981840;28;20464;-55
2021/11/10 11:24:44;;;;;;;24.70;12.70;;;9.00;83.60;;;;;;4983466;28;20452;-57
2021/11/10 11:27:17;;;;;;;21.47;11.17;;;9.30;80.40;;;;;;4984253;28;20441;-57
2021/11/10 11:29:44;;;;;;;23.67;12.33;;;9.40;79.80;;;;;;4985877;28;20943;-58
2021/11/10 11:32:20;;;;;;;27.30;12.17;;;9.60;77.50;;;;;;4984420;28;20483;-59
2021/11/10 11:34:57;;;;;;;24.73;12.63;;;9.70;75.90;;;;;;4986388;28;20459;-59
2021/11/10 11:37:25;;;;;;;26.57;12.47;;;9.80;76.80;;;;;;4975428;28;20459;-59
2021/11/10 11:39:56;;;;;;;24.83;12.37;;;9.80;73.30;;;;;;4975138;28;20454;-55
2021/11/10 11:42:26;;;;;;;23.87;12.80;;;9.90;73.10;;;;;;4984517;28;20870;-58
2021/11/10 11:44:52;;;;;;;18.00;10.10;;;10.00;70.70;;;;;;4984928;28;20886;-58
2021/11/10 11:47:18;;;;;;;17.80;11.00;;;10.10;69.70;;;;;;4982081;28;20590;-59
2021/11/10 11:49:49;;;;;;;18.63;11.57;;;10.30;69.70;;;;;;4980995;28;20463;-57
2021/11/10 11:52:16;;;;;;;17.97;10.80;;;10.40;69.00;;;;;;4987928;28;21013;-57
2021/11/10 11:54:48;;;;;;;18.73;9.77;;;10.40;68.50;;;;;;4983390;28;20463;-57
2021/11/10 11:57:22;;;;;;;15.03;9.70;;;10.40;68.80;;;;;;4988404;28;20520;-56
2021/11/10 11:59:53;;;;;;;16.50;9.60;;;10.40;69.00;;;;;;4978321;28;20429;-57
2021/11/10 12:02:44;;;;;;;17.90;10.17;;;10.30;69.20;;;;;;4980820;28;20452;-57
2021/11/10 12:05:20;;;;;;;15.10;9.40;;;10.30;70.20;;;;;;4986492;28;20440;-57
2021/11/10 12:07:53;;;;;;;14.90;9.53;;;10.30;70.30;;;;;;4988943;28;20404;-56
2021/11/10 12:10:30;;;;;;;15.90;9.63;;;10.40;70.80;;;;;;4988111;28;20817;-57
2021/11/10 12:13:10;;;;;;;17.03;10.00;;;10.40;70.80;;;;;;4987816;28;20474;-56
2021/11/10 12:16:06;;;;;;;16.50;8.93;;;10.40;69.90;;;;;;4984094;28;20486;-56
2021/11/10 12:18:47;;;;;;;15.73;9.50;;;10.50;69.70;;;;;;4987491;28;20452;-59
2021/11/10 12:21:14;;;;;;;15.77;8.90;;;10.50;69.30;;;;;;4986500;28;20602;-55
2021/11/10 12:23:55;;;;;;;16.70;8.90;;;10.50;68.80;;;;;;4983839;28;20428;-57
2021/11/10 12:26:24;;;;;;;14.97;8.60;;;10.50;68.50;;;;;;4988567;28;20764;-57
2021/11/10 12:28:55;;;;;;;14.67;9.07;;;10.50;68.00;;;;;;4982017;28;20475;-57
2021/11/10 12:31:32;;;;;;;14.97;8.97;;;10.60;67.80;;;;;;4982761;28;20972;-57
2021/11/10 12:34:18;;;;;;;11.60;8.13;;;10.70;66.60;;;;;;4980274;28;20458;-57
2021/11/10 12:36:59;;;;;;;15.63;9.07;;;10.70;65.20;;;;;;4984166;28;20444;-56
2021/11/10 12:39:40;;;;;;;13.63;8.80;;;10.80;64.10;;;;;;4982118;28;20432;-57
2021/11/10 12:42:12;;;;;;;16.53;8.10;;;10.80;64.70;;;;;;4979929;28;20688;-58